createdAt,value
2018-05-31T00:00:41.204Z,86.60
2018-05-31T00:03:08.743Z,86.60
2018-05-31T00:05:37.065Z,86.60
2018-05-31T00:08:04.630Z,86.60
2018-05-31T00:10:32.189Z,86.50
2018-05-31T00:12:59.769Z,86.40
2018-05-31T00:15:27.308Z,86.50
2018-05-31T00:17:54.883Z,86.50
2018-05-31T00:20:22.440Z,86.70
2018-05-31T00:22:50.019Z,86.60
2018-05-31T00:25:17.578Z,87.10
2018-05-31T00:27:45.245Z,87.10
2018-05-31T00:30:12.769Z,87.80
2018-05-31T00:32:41.077Z,88.00
2018-05-31T00:35:08.634Z,88.00
2018-05-31T00:37:37.042Z,88.50
2018-05-31T00:40:04.604Z,88.40
2018-05-31T00:42:32.146Z,88.90
2018-05-31T00:44:59.717Z,89.00
2018-05-31T00:47:27.252Z,89.90
2018-05-31T00:49:55.596Z,90.00
2018-05-31T00:52:23.131Z,90.00
2018-05-31T00:54:50.670Z,90.00
2018-05-31T00:57:19.096Z,90.30
2018-05-31T00:59:46.650Z,90.20
2018-05-31T01:02:14.222Z,90.40
2018-05-31T01:04:41.759Z,90.50
2018-05-31T01:07:09.328Z,90.60
2018-05-31T01:09:36.870Z,90.60
2018-05-31T01:12:05.303Z,90.80
2018-05-31T01:14:32.847Z,90.80
2018-05-31T01:17:00.388Z,90.90
2018-05-31T01:19:28.712Z,91.00
2018-05-31T01:21:56.247Z,91.00
2018-05-31T01:24:23.812Z,91.00
2018-05-31T01:26:51.351Z,91.00
2018-05-31T01:29:19.681Z,91.00
2018-05-31T01:31:47.210Z,91.00
2018-05-31T01:34:15.520Z,91.10
2018-05-31T01:36:43.093Z,91.10
2018-05-31T01:39:17.514Z,91.20
2018-05-31T01:41:45.062Z,91.20
2018-05-31T01:44:12.599Z,91.10
2018-05-31T01:46:40.907Z,91.30
2018-05-31T01:49:08.452Z,91.30
2018-05-31T01:51:36.867Z,91.20
2018-05-31T01:54:04.404Z,91.10
2018-05-31T01:56:31.966Z,91.20
2018-05-31T01:59:00.271Z,91.20
2018-05-31T02:01:27.808Z,91.20
2018-05-31T02:03:56.125Z,91.10
2018-05-31T02:06:23.691Z,91.10
2018-05-31T02:08:51.213Z,91.10
2018-05-31T02:11:19.535Z,91.40
2018-05-31T02:13:47.100Z,91.40
2018-05-31T02:16:14.767Z,91.60
2018-05-31T02:18:42.299Z,91.70
2018-05-31T02:21:10.609Z,91.70
2018-05-31T02:23:38.153Z,91.70
2018-05-31T02:26:06.463Z,91.70
2018-05-31T02:28:34.038Z,91.60
2018-05-31T02:31:01.588Z,91.60
2018-05-31T02:33:29.140Z,91.60
2018-05-31T02:35:56.680Z,91.60
2018-05-31T02:38:24.986Z,91.70
2018-05-31T02:40:52.504Z,91.70
2018-05-31T02:43:20.131Z,91.80
2018-05-31T02:45:47.694Z,91.80
2018-05-31T02:48:15.227Z,91.80
2018-05-31T02:50:42.764Z,91.80
2018-05-31T02:53:10.292Z,91.80
2018-05-31T02:55:37.817Z,91.70
2018-05-31T02:58:06.117Z,91.80
2018-05-31T03:00:33.659Z,91.80
2018-05-31T03:03:01.208Z,91.80
2018-05-31T03:05:29.545Z,91.90
2018-05-31T03:07:57.067Z,91.80
2018-05-31T03:10:25.379Z,91.90
2018-05-31T03:12:52.922Z,91.90
2018-05-31T03:15:20.463Z,91.90
2018-05-31T03:17:48.796Z,91.80
2018-05-31T03:20:16.317Z,91.80
2018-05-31T03:22:44.637Z,91.70
2018-05-31T03:25:12.166Z,91.70
2018-05-31T03:27:39.715Z,91.70
2018-05-31T03:30:08.047Z,91.50
2018-05-31T03:32:35.586Z,91.40
2018-05-31T03:35:03.115Z,91.50
2018-05-31T03:37:30.668Z,91.40
2018-05-31T03:39:58.192Z,91.40
2018-05-31T03:42:25.741Z,91.30
2018-05-31T03:44:54.044Z,91.40
2018-05-31T03:47:21.617Z,91.40
2018-05-31T03:49:49.144Z,91.40
2018-05-31T03:52:17.430Z,91.40
2018-05-31T03:54:45.842Z,91.50
2018-05-31T03:57:13.361Z,91.50
2018-05-31T03:59:41.792Z,91.60
2018-05-31T04:02:09.354Z,91.50
2018-05-31T04:04:36.907Z,91.50
2018-05-31T04:07:04.444Z,91.60
2018-05-31T04:09:32.865Z,91.50
2018-05-31T04:12:00.396Z,91.50
2018-05-31T04:14:28.717Z,91.60
2018-05-31T04:16:56.239Z,91.60
2018-05-31T04:19:24.557Z,91.60
2018-05-31T04:21:52.102Z,91.50
2018-05-31T04:24:19.659Z,91.30
2018-05-31T04:26:47.197Z,91.50
2018-05-31T04:29:15.496Z,91.60
2018-05-31T04:31:43.816Z,91.80
2018-05-31T04:34:11.351Z,91.80
2018-05-31T04:36:38.900Z,92.00
2018-05-31T04:39:07.220Z,92.00
2018-05-31T04:41:34.888Z,92.00
2018-05-31T04:44:02.424Z,91.90
2018-05-31T04:46:29.985Z,91.80
2018-05-31T04:48:57.532Z,91.90
2018-05-31T04:51:25.866Z,92.30
2018-05-31T04:53:53.408Z,92.30
2018-05-31T04:56:20.993Z,91.80
2018-05-31T04:58:48.543Z,91.70
2018-05-31T05:01:16.080Z,91.70
2018-05-31T05:03:44.390Z,91.40
2018-05-31T05:06:11.915Z,91.40
2018-05-31T05:08:40.247Z,91.20
2018-05-31T05:11:07.813Z,91.20
2018-05-31T05:13:35.377Z,91.30
2018-05-31T05:16:02.901Z,91.70
2018-05-31T05:18:31.225Z,91.40
2018-05-31T05:20:58.746Z,91.40
2018-05-31T05:23:27.053Z,91.20
2018-05-31T05:25:54.609Z,91.20
2018-05-31T05:28:22.150Z,91.30
2018-05-31T05:30:50.846Z,91.20
2018-05-31T05:33:19.143Z,91.20
2018-05-31T05:35:46.686Z,91.20
2018-05-31T05:38:14.986Z,91.10
2018-05-31T05:40:42.542Z,91.00
2018-05-31T05:43:10.858Z,90.80
2018-05-31T05:45:38.422Z,90.80
2018-05-31T05:48:05.966Z,91.00
2018-05-31T05:50:33.517Z,91.00
2018-05-31T05:53:01.936Z,90.70
2018-05-31T05:55:29.473Z,90.70
2018-05-31T05:57:57.066Z,90.60
2018-05-31T06:00:24.614Z,90.90
2018-05-31T06:02:52.278Z,90.50
2018-05-31T06:05:20.089Z,90.80
2018-05-31T06:07:47.642Z,90.40
2018-05-31T06:10:15.219Z,90.40
2018-05-31T06:12:42.728Z,90.10
2018-05-31T06:15:11.038Z,90.40
2018-05-31T06:17:38.582Z,90.40
2018-05-31T06:20:06.128Z,90.70
2018-05-31T06:22:34.807Z,88.40
2018-05-31T06:25:03.119Z,89.00
2018-05-31T06:27:31.436Z,88.00
2018-05-31T06:29:58.959Z,88.50
2018-05-31T06:32:26.505Z,88.10
2018-05-31T06:34:54.831Z,89.20
2018-05-31T06:37:22.408Z,88.70
2018-05-31T06:39:50.699Z,88.30
2018-05-31T06:42:18.214Z,88.30
2018-05-31T06:44:45.769Z,88.90
2018-05-31T06:47:13.302Z,88.90
2018-05-31T06:49:40.937Z,87.70
2018-05-31T06:52:08.508Z,86.20
2018-05-31T06:54:36.029Z,85.50
2018-05-31T06:57:04.348Z,85.80
2018-05-31T06:59:31.860Z,85.10
2018-05-31T07:01:59.388Z,84.30
2018-05-31T07:04:26.940Z,83.40
2018-05-31T07:06:54.513Z,84.00
2018-05-31T07:09:22.031Z,85.10
2018-05-31T07:11:50.451Z,82.80
2018-05-31T07:14:17.972Z,82.80
2018-05-31T07:16:45.509Z,79.90
2018-05-31T07:19:13.040Z,81.80
2018-05-31T07:21:40.606Z,81.50
2018-05-31T07:24:08.130Z,79.80
2018-05-31T07:26:35.655Z,80.80
2018-05-31T07:29:03.187Z,79.30
2018-05-31T07:31:30.712Z,78.40
2018-05-31T07:33:58.239Z,80.00
2018-05-31T07:36:25.759Z,77.40
2018-05-31T07:38:54.060Z,78.90
2018-05-31T07:41:21.588Z,78.90
2018-05-31T07:43:49.136Z,78.10
2018-05-31T07:46:16.663Z,78.70
2018-05-31T07:51:18.573Z,78.00
2018-05-31T07:53:46.071Z,76.00
2018-05-31T07:56:13.672Z,75.20
2018-05-31T07:58:41.180Z,75.80
2018-05-31T08:01:08.739Z,76.10
2018-05-31T08:03:36.264Z,75.40
2018-05-31T08:06:03.802Z,74.10
2018-05-31T08:08:32.090Z,75.30
2018-05-31T08:11:00.400Z,72.30
2018-05-31T08:13:27.921Z,72.20
2018-05-31T08:15:56.214Z,74.70
2018-05-31T08:18:23.745Z,74.70
2018-05-31T08:20:51.278Z,71.40
2018-05-31T08:23:18.796Z,74.50
2018-05-31T08:25:47.126Z,76.10
2018-05-31T08:28:14.673Z,76.10
2018-05-31T08:30:42.189Z,74.90
2018-05-31T08:33:09.747Z,76.30
2018-05-31T08:35:37.261Z,73.10
2018-05-31T08:38:04.786Z,73.30
2018-05-31T08:40:32.299Z,71.20
2018-05-31T08:42:59.841Z,71.20
2018-05-31T08:45:27.359Z,70.10
2018-05-31T08:47:54.891Z,70.60
2018-05-31T08:50:22.411Z,70.30
2018-05-31T08:52:51.081Z,70.20
2018-05-31T08:55:18.703Z,70.20
2018-05-31T08:57:46.209Z,69.10
2018-05-31T09:00:13.736Z,69.60
2018-05-31T09:02:41.247Z,68.70
2018-05-31T09:05:08.787Z,66.90
2018-05-31T09:07:36.307Z,67.20
2018-05-31T09:10:03.868Z,69.70
2018-05-31T09:12:31.393Z,68.80
2018-05-31T09:14:58.934Z,68.30
2018-05-31T09:17:26.447Z,67.10
2018-05-31T09:19:54.730Z,68.00
2018-05-31T09:22:23.045Z,67.20
2018-05-31T09:24:50.567Z,67.20
2018-05-31T09:27:18.866Z,68.10
2018-05-31T09:29:47.146Z,66.40
2018-05-31T09:32:15.456Z,66.00
2018-05-31T09:34:42.975Z,66.00
2018-05-31T09:37:11.567Z,65.40
2018-05-31T09:39:39.870Z,65.40
2018-05-31T09:42:07.420Z,65.30
2018-05-31T09:44:35.700Z,65.20
2018-05-31T09:47:04.011Z,65.80
2018-05-31T09:49:31.575Z,65.70
2018-05-31T09:51:59.113Z,65.60
2018-05-31T09:54:27.453Z,64.70
2018-05-31T09:56:54.991Z,64.70
2018-05-31T09:59:22.561Z,63.70
2018-05-31T10:01:50.148Z,63.20
2018-05-31T10:04:17.676Z,64.80
2018-05-31T10:06:45.396Z,64.40
2018-05-31T10:09:12.922Z,63.00
2018-05-31T10:11:40.472Z,63.30
2018-05-31T10:14:08.005Z,64.80
2018-05-31T10:16:36.318Z,65.10
2018-05-31T10:19:03.976Z,65.00
2018-05-31T10:21:31.510Z,64.40
2018-05-31T10:23:59.809Z,64.00
2018-05-31T10:26:28.118Z,63.70
2018-05-31T10:28:55.643Z,63.70
2018-05-31T10:31:24.952Z,61.70
2018-05-31T10:33:53.247Z,62.40
2018-05-31T10:36:20.768Z,62.40
2018-05-31T10:38:48.309Z,60.50
2018-05-31T10:41:15.824Z,62.80
2018-05-31T10:43:45.010Z,60.20
2018-05-31T10:46:13.303Z,62.50
2018-05-31T10:48:41.613Z,62.50
2018-05-31T10:51:09.182Z,62.40
2018-05-31T10:53:36.710Z,62.40
2018-05-31T10:56:04.989Z,63.20
2018-05-31T10:58:33.286Z,61.60
2018-05-31T11:01:01.586Z,59.10
2018-05-31T11:03:29.107Z,59.30
2018-05-31T11:05:57.421Z,60.40
2018-05-31T11:08:24.941Z,60.10
2018-05-31T11:10:52.467Z,58.40
2018-05-31T11:13:19.990Z,60.70
2018-05-31T11:15:48.304Z,59.10
2018-05-31T11:18:15.843Z,59.10
2018-05-31T11:20:44.157Z,58.30
2018-05-31T11:23:12.189Z,58.30
2018-05-31T11:25:40.486Z,60.60
2018-05-31T11:28:08.785Z,60.60
2018-05-31T11:30:36.349Z,60.60
2018-05-31T11:33:03.896Z,60.40
2018-05-31T11:35:32.186Z,60.70
2018-05-31T11:37:59.712Z,60.60
2018-05-31T11:40:28.014Z,59.40
2018-05-31T11:42:56.324Z,61.00
2018-05-31T11:45:23.857Z,60.80
2018-05-31T11:47:52.173Z,60.10
2018-05-31T11:50:19.686Z,60.10
2018-05-31T11:52:47.970Z,61.00
2018-05-31T11:55:16.283Z,60.00
2018-05-31T11:57:43.797Z,60.30
2018-05-31T12:00:11.339Z,63.50
2018-05-31T12:02:38.861Z,63.10
2018-05-31T12:05:07.150Z,60.60
2018-05-31T12:07:35.421Z,58.90
2018-05-31T12:10:03.764Z,60.70
2018-05-31T12:12:31.303Z,60.70
2018-05-31T12:14:58.823Z,61.60
2018-05-31T12:17:27.593Z,61.50
2018-05-31T12:19:55.087Z,61.40
2018-05-31T12:22:23.386Z,60.80
2018-05-31T12:24:50.907Z,60.60
2018-05-31T12:27:18.436Z,57.00
2018-05-31T12:29:45.956Z,57.20
2018-05-31T12:32:14.277Z,59.20
2018-05-31T12:34:41.794Z,59.20
2018-05-31T12:37:10.118Z,56.00
2018-05-31T12:39:37.642Z,56.00
2018-05-31T12:42:05.962Z,51.40
2018-05-31T12:44:33.513Z,51.40
2018-05-31T12:47:01.041Z,51.90
2018-05-31T12:49:30.125Z,54.80
2018-05-31T12:51:57.603Z,54.70
2018-05-31T12:54:25.143Z,55.80
2018-05-31T12:56:52.680Z,56.40
2018-05-31T12:59:20.236Z,55.50
2018-05-31T13:01:47.769Z,56.10
2018-05-31T13:04:16.055Z,53.60
2018-05-31T13:06:44.353Z,56.30
2018-05-31T13:09:11.927Z,56.90
2018-05-31T13:11:39.459Z,55.50
2018-05-31T13:14:07.753Z,56.20
2018-05-31T13:16:36.051Z,56.60
2018-05-31T13:19:03.584Z,56.60
2018-05-31T13:21:31.896Z,55.00
2018-05-31T13:23:59.440Z,55.00
2018-05-31T13:26:27.746Z,57.00
2018-05-31T13:28:56.040Z,60.90
2018-05-31T13:31:23.558Z,60.90
2018-05-31T13:33:51.980Z,61.10
2018-05-31T13:36:19.513Z,61.00
2018-05-31T13:38:47.815Z,61.20
2018-05-31T13:41:15.332Z,61.00
2018-05-31T13:43:43.615Z,62.60
2018-05-31T13:46:11.141Z,62.70
2018-05-31T13:48:38.666Z,62.00
2018-05-31T13:51:06.261Z,60.90
2018-05-31T13:53:34.544Z,60.80
2018-05-31T13:56:02.100Z,60.80
2018-05-31T13:58:29.618Z,61.30
2018-05-31T14:00:57.909Z,60.10
2018-05-31T14:03:25.435Z,60.10
2018-05-31T14:05:52.961Z,62.00
2018-05-31T14:08:20.499Z,60.90
2018-05-31T14:10:48.920Z,62.50
2018-05-31T14:13:17.305Z,61.70
2018-05-31T14:15:44.835Z,61.80
2018-05-31T14:18:13.131Z,59.00
2018-05-31T14:20:41.465Z,55.00
2018-05-31T14:23:09.015Z,55.00
2018-05-31T14:25:36.576Z,55.60
2018-05-31T14:28:04.149Z,55.50
2018-05-31T14:30:31.700Z,54.80
2018-05-31T14:32:59.249Z,54.70
2018-05-31T14:35:26.792Z,53.70
2018-05-31T14:37:55.078Z,53.50
2018-05-31T14:40:23.371Z,56.60
2018-05-31T14:42:50.981Z,56.00
2018-05-31T14:45:18.554Z,56.40
2018-05-31T14:47:46.890Z,58.00
2018-05-31T14:50:14.410Z,58.00
2018-05-31T14:52:41.997Z,59.80
2018-05-31T14:55:09.694Z,61.70
2018-05-31T14:57:37.252Z,63.00
2018-05-31T15:00:05.587Z,63.70
2018-05-31T15:02:33.107Z,63.70
2018-05-31T15:05:00.663Z,65.00
2018-05-31T15:07:31.667Z,68.50
2018-05-31T15:10:01.657Z,71.00
2018-05-31T15:12:30.524Z,71.00
2018-05-31T15:14:59.747Z,70.40
2018-05-31T15:17:27.387Z,69.10
2018-05-31T15:19:54.932Z,69.60
2018-05-31T15:22:23.231Z,70.10
2018-05-31T15:24:50.752Z,70.00
2018-05-31T15:27:18.312Z,68.40
2018-05-31T15:29:45.845Z,68.50
2018-05-31T15:32:13.400Z,68.80
2018-05-31T15:34:40.932Z,68.20
2018-05-31T15:37:09.343Z,67.00
2018-05-31T15:39:36.872Z,67.00
2018-05-31T15:42:05.193Z,68.50
2018-05-31T15:44:32.734Z,68.40
2018-05-31T15:47:00.288Z,69.50
2018-05-31T15:49:28.664Z,73.70
2018-05-31T15:51:57.044Z,72.80
2018-05-31T15:54:25.462Z,74.10
2018-05-31T15:56:53.129Z,74.10
2018-05-31T15:59:20.733Z,75.80
2018-05-31T16:01:49.274Z,78.40
2018-05-31T16:04:18.491Z,78.40
2018-05-31T16:06:46.086Z,78.30
2018-05-31T16:09:13.621Z,77.50
2018-05-31T16:11:41.175Z,78.00
2018-05-31T16:14:08.726Z,78.70
2018-05-31T16:16:36.305Z,79.60
2018-05-31T16:19:03.863Z,80.70
2018-05-31T16:21:31.390Z,81.50
2018-05-31T16:23:58.916Z,82.10
2018-05-31T16:26:26.519Z,84.70
2018-05-31T16:28:54.075Z,85.50
2018-05-31T16:31:21.654Z,88.90
2018-05-31T16:33:49.955Z,87.20
2018-05-31T16:36:18.355Z,88.00
2018-05-31T16:38:45.905Z,88.00
2018-05-31T16:41:14.239Z,86.40
2018-05-31T16:43:41.826Z,86.40
2018-05-31T16:46:10.112Z,85.20
2018-05-31T16:48:37.648Z,85.20
2018-05-31T16:51:05.278Z,85.40
2018-05-31T16:53:32.856Z,85.50
2018-05-31T16:56:00.455Z,85.60
2018-05-31T16:58:28.016Z,86.20
2018-05-31T17:00:55.570Z,86.30
2018-05-31T17:03:23.154Z,85.10
2018-05-31T17:05:50.689Z,86.20
2018-05-31T17:08:18.334Z,86.90
2018-05-31T17:10:45.929Z,86.50
2018-05-31T17:13:13.565Z,86.40
2018-05-31T17:15:41.170Z,87.50
2018-05-31T17:18:08.713Z,87.80
2018-05-31T17:20:36.362Z,86.80
2018-05-31T17:23:03.887Z,89.00
2018-05-31T17:25:32.313Z,90.50
2018-05-31T17:28:01.816Z,90.50
2018-05-31T17:30:29.939Z,90.20
2018-05-31T17:32:57.530Z,90.50
2018-05-31T17:35:25.433Z,88.90
2018-05-31T17:37:53.735Z,89.50
2018-05-31T17:40:21.719Z,89.20
2018-05-31T17:42:49.988Z,88.70
2018-05-31T17:45:17.946Z,87.70
2018-05-31T17:47:46.573Z,87.50
2018-05-31T17:50:14.147Z,87.10
2018-05-31T17:52:41.708Z,86.80
2018-05-31T17:55:09.293Z,86.00
2018-05-31T17:57:37.616Z,84.30
2018-05-31T18:00:05.285Z,84.20
2018-05-31T18:02:32.903Z,82.20
2018-05-31T18:05:01.335Z,81.70
2018-05-31T18:07:28.991Z,81.70
2018-05-31T18:09:56.566Z,81.40
2018-05-31T18:12:24.173Z,80.50
2018-05-31T18:14:52.639Z,81.00
2018-05-31T18:17:20.272Z,81.00
2018-05-31T18:19:47.864Z,80.80
2018-05-31T18:22:15.509Z,82.20
2018-05-31T18:24:43.108Z,80.50
2018-05-31T18:27:11.707Z,83.70
2018-05-31T18:29:39.322Z,84.50
2018-05-31T18:32:06.913Z,83.70
2018-05-31T18:34:34.538Z,84.10
2018-05-31T18:37:02.170Z,85.00
2018-05-31T18:39:29.819Z,86.30
2018-05-31T18:41:57.564Z,89.00
2018-05-31T18:44:25.218Z,90.10
2018-05-31T18:46:52.907Z,90.00
2018-05-31T18:49:20.555Z,90.20
2018-05-31T18:51:48.334Z,90.10
2018-05-31T18:54:16.006Z,90.00
2018-05-31T18:56:43.789Z,89.80
2018-05-31T18:59:11.371Z,89.30
2018-05-31T19:01:39.022Z,90.00
2018-05-31T19:04:06.665Z,89.90
2018-05-31T19:06:34.259Z,90.00
2018-05-31T19:09:02.620Z,89.60
2018-05-31T19:11:31.489Z,89.80
2018-05-31T19:13:59.104Z,90.00
2018-05-31T19:16:26.744Z,90.00
2018-05-31T19:19:00.032Z,89.10
2018-05-31T19:21:28.542Z,88.90
2018-05-31T19:23:57.650Z,89.10
2018-05-31T19:26:26.149Z,89.10
2018-05-31T19:28:53.850Z,89.20
2018-05-31T19:31:21.544Z,89.40
2018-05-31T19:33:50.230Z,89.40
2018-05-31T19:36:23.630Z,89.80
2018-05-31T19:38:51.397Z,90.00
2018-05-31T19:41:19.106Z,90.30
2018-05-31T19:43:52.715Z,90.50
2018-05-31T19:46:20.540Z,90.60
2018-05-31T19:48:49.127Z,90.60
2018-05-31T19:51:22.624Z,90.40
2018-05-31T19:53:50.233Z,90.40
2018-05-31T19:56:18.080Z,90.30
2018-05-31T19:58:51.262Z,90.00
2018-05-31T20:01:34.715Z,89.80
2018-05-31T20:04:02.452Z,90.10
2018-05-31T20:06:30.221Z,90.30
2018-05-31T20:08:57.905Z,90.50
2018-05-31T20:11:25.657Z,90.30
2018-05-31T20:13:53.268Z,90.40
2018-05-31T20:16:20.891Z,90.40
2018-05-31T20:18:49.270Z,90.30
2018-05-31T20:21:16.873Z,90.40
2018-05-31T20:23:44.605Z,90.40
2018-05-31T20:26:12.391Z,90.50
2018-05-31T20:28:40.654Z,90.30
2018-05-31T20:31:08.361Z,90.30
2018-05-31T20:33:37.620Z,90.50
2018-05-31T20:36:05.235Z,90.50
2018-05-31T20:38:33.672Z,90.40
2018-05-31T20:41:01.288Z,90.10
2018-05-31T20:43:28.826Z,90.30
2018-05-31T20:45:56.427Z,90.70
2018-05-31T20:48:24.748Z,90.60
2018-05-31T20:50:52.414Z,90.50
2018-05-31T20:53:20.080Z,90.50
2018-05-31T20:55:47.653Z,90.30
2018-05-31T20:58:15.222Z,90.40
2018-05-31T21:00:42.776Z,90.40
2018-05-31T21:03:10.325Z,90.20
2018-05-31T21:05:37.882Z,90.20
2018-05-31T21:08:06.214Z,90.40
2018-05-31T21:10:33.792Z,90.40
2018-05-31T21:13:01.341Z,90.20
2018-05-31T21:15:28.982Z,90.10
2018-05-31T21:17:56.648Z,90.00
2018-05-31T21:20:24.216Z,90.10
2018-05-31T21:22:51.783Z,90.10
2018-05-31T21:25:19.316Z,90.00
2018-05-31T21:27:47.725Z,88.80
2018-05-31T21:30:15.256Z,89.30
2018-05-31T21:32:42.808Z,90.00
2018-05-31T21:35:10.344Z,89.70
2018-05-31T21:37:37.887Z,90.20
2018-05-31T21:40:05.551Z,90.80
2018-05-31T21:42:33.079Z,90.30
2018-05-31T21:45:01.429Z,90.30
2018-05-31T21:47:29.058Z,90.30
2018-05-31T21:49:56.622Z,90.40
2018-05-31T21:52:24.152Z,90.40
2018-05-31T21:54:52.468Z,90.50
2018-05-31T21:57:20.034Z,90.40
2018-05-31T21:59:47.601Z,90.40
2018-05-31T22:02:15.172Z,90.10
2018-05-31T22:04:42.702Z,90.20
2018-05-31T22:07:10.998Z,90.20
2018-05-31T22:09:38.575Z,90.10
2018-05-31T22:12:06.165Z,90.20
2018-05-31T22:14:33.674Z,90.30
2018-05-31T22:17:01.986Z,90.00
2018-05-31T22:19:29.554Z,90.00
2018-05-31T22:21:57.113Z,89.90
2018-05-31T22:24:24.681Z,90.10
2018-05-31T22:26:52.202Z,89.80
2018-05-31T22:29:20.505Z,89.40
2018-05-31T22:31:48.811Z,88.50
2018-05-31T22:34:16.343Z,88.50
2018-05-31T22:36:44.649Z,88.60
2018-05-31T22:39:12.159Z,88.50
2018-05-31T22:41:41.213Z,88.80
2018-05-31T22:44:08.721Z,88.80
2018-05-31T22:46:36.250Z,88.70
2018-05-31T22:49:03.757Z,88.80
2018-05-31T22:51:31.297Z,88.90
2018-05-31T22:53:58.828Z,89.20
2018-05-31T22:56:26.363Z,88.90
2018-05-31T22:58:54.776Z,89.20
2018-05-31T23:01:22.309Z,89.20
2018-05-31T23:03:50.622Z,89.50
2018-05-31T23:06:18.187Z,89.50
2018-05-31T23:11:24.559Z,90.00
2018-05-31T23:13:52.143Z,90.00
2018-05-31T23:16:19.700Z,89.70
2018-05-31T23:18:47.230Z,89.70
2018-05-31T23:21:14.755Z,89.90
2018-05-31T23:23:42.294Z,90.00
2018-05-31T23:26:09.859Z,90.30
2018-05-31T23:28:37.383Z,90.00
2018-05-31T23:31:04.895Z,90.00
2018-05-31T23:33:32.432Z,89.90
2018-05-31T23:35:59.961Z,90.10
2018-05-31T23:38:27.481Z,90.10
2018-05-31T23:40:55.007Z,90.20
2018-05-31T23:43:23.291Z,90.10
2018-05-31T23:45:51.566Z,90.20
2018-05-31T23:48:19.076Z,90.10
2018-05-31T23:50:46.632Z,90.20
2018-05-31T23:53:14.150Z,90.30
2018-05-31T23:55:42.444Z,91.00
2018-05-31T23:58:10.727Z,90.80
